sensor_id;sensor_type;location;lat;lon;timestamp;temperature;humidity
75517;DHT22;64097;52.548;13.406;2022-10-31T06:02:45;17.00;70.20
75517;DHT22;64097;52.548;13.406;2022-10-31T06:05:11;17.00;70.40
75517;DHT22;64097;52.548;13.406;2022-10-31T06:07:36;17.00;70.20
75517;DHT22;64097;52.548;13.406;2022-10-31T06:10:05;17.00;70.20
75517;DHT22;64097;52.548;13.406;2022-10-31T06:12:31;17.00;70.30
75517;DHT22;64097;52.548;13.406;2022-10-31T06:15:03;17.00;70.30
75517;DHT22;64097;52.548;13.406;2022-10-31T06:17:29;17.00;70.30
75517;DHT22;64097;52.548;13.406;2022-10-31T06:19:55;17.10;70.30
75517;DHT22;64097;52.548;13.406;2022-10-31T06:22:21;17.10;70.30
75517;DHT22;64097;52.548;13.406;2022-10-31T06:24:46;17.10;70.30
75517;DHT22;64097;52.548;13.406;2022-10-31T06:27:12;17.10;70.30
75517;DHT22;64097;52.548;13.406;2022-10-31T06:29:38;17.10;70.30
75517;DHT22;64097;52.548;13.406;2022-10-31T06:32:03;17.10;70.30
75517;DHT22;64097;52.548;13.406;2022-10-31T06:34:29;17.10;70.30
75517;DHT22;64097;52.548;13.406;2022-10-31T06:36:55;17.10;70.30
75517;DHT22;64097;52.548;13.406;2022-10-31T06:39:20;17.10;70.30
75517;DHT22;64097;52.548;13.406;2022-10-31T06:41:49;17.10;70.30
75517;DHT22;64097;52.548;13.406;2022-10-31T06:44:15;17.20;70.20
75517;DHT22;64097;52.548;13.406;2022-10-31T06:46:40;17.20;70.30
75517;DHT22;64097;52.548;13.406;2022-10-31T06:49:06;17.20;70.30
75517;DHT22;64097;52.548;13.406;2022-10-31T06:51:32;17.20;70.30
75517;DHT22;64097;52.548;13.406;2022-10-31T06:53:57;17.20;70.30
75517;DHT22;64097;52.548;13.406;2022-10-31T06:56:23;17.20;70.20
75517;DHT22;64097;52.548;13.406;2022-10-31T06:58:49;17.20;70.20
75517;DHT22;64097;52.548;13.406;2022-10-31T07:01:15;17.30;70.40
75517;DHT22;64097;52.548;13.406;2022-10-31T07:03:40;17.30;70.40
75517;DHT22;64097;52.548;13.406;2022-10-31T07:06:06;17.30;70.40
75517;DHT22;64097;52.548;13.406;2022-10-31T07:08:32;17.30;70.40
75517;DHT22;64097;52.548;13.406;2022-10-31T07:10:57;17.40;70.40
75517;DHT22;64097;52.548;13.406;2022-10-31T07:13:24;17.40;70.40
75517;DHT22;64097;52.548;13.406;2022-10-31T07:15:55;17.50;70.50
75517;DHT22;64097;52.548;13.406;2022-10-31T07:18:24;17.50;70.50
75517;DHT22;64097;52.548;13.406;2022-10-31T07:20:51;17.60;70.40
75517;DHT22;64097;52.548;13.406;2022-10-31T07:23:17;17.60;70.40
75517;DHT22;64097;52.548;13.406;2022-10-31T07:25:42;17.70;70.40
75517;DHT22;64097;52.548;13.406;2022-10-31T07:28:09;17.80;70.40
75517;DHT22;64097;52.548;13.406;2022-10-31T07:30:35;17.80;70.30
75517;DHT22;64097;52.548;13.406;2022-10-31T07:33:00;17.80;70.20
75517;DHT22;64097;52.548;13.406;2022-10-31T07:35:28;17.90;70.10
75517;DHT22;64097;52.548;13.406;2022-10-31T07:37:54;18.00;70.10
75517;DHT22;64097;52.548;13.406;2022-10-31T07:40:21;18.00;69.90
75517;DHT22;64097;52.548;13.406;2022-10-31T07:42:49;18.00;69.90
75517;DHT22;64097;52.548;13.406;2022-10-31T07:45:17;18.10;69.80
75517;DHT22;64097;52.548;13.406;2022-10-31T07:47:45;18.10;69.70
75517;DHT22;64097;52.548;13.406;2022-10-31T07:50:18;18.20;69.60
75517;DHT22;64097;52.548;13.406;2022-10-31T07:52:44;18.20;69.50
75517;DHT22;64097;52.548;13.406;2022-10-31T07:55:10;18.20;69.40
75517;DHT22;64097;52.548;13.406;2022-10-31T07:57:36;18.20;69.30
75517;DHT22;64097;52.548;13.406;2022-10-31T08:00:04;18.20;69.20
75517;DHT22;64097;52.548;13.406;2022-10-31T08:02:30;18.20;69.30
75517;DHT22;64097;52.548;13.406;2022-10-31T08:04:55;18.20;69.20
75517;DHT22;64097;52.548;13.406;2022-10-31T08:07:21;18.20;69.20
75517;DHT22;64097;52.548;13.406;2022-10-31T08:09:47;18.20;69.30
75517;DHT22;64097;52.548;13.406;2022-10-31T08:12:12;18.20;69.40
75517;DHT22;64097;52.548;13.406;2022-10-31T08:14:38;18.20;69.40
75517;DHT22;64097;52.548;13.406;2022-10-31T08:17:04;18.20;69.40
75517;DHT22;64097;52.548;13.406;2022-10-31T08:19:29;18.20;69.40
75517;DHT22;64097;52.548;13.406;2022-10-31T08:21:55;18.20;69.40
75517;DHT22;64097;52.548;13.406;2022-10-31T08:24:21;18.20;69.40
75517;DHT22;64097;52.548;13.406;2022-10-31T08:26:47;18.20;69.40
75517;DHT22;64097;52.548;13.406;2022-10-31T08:29:13;18.20;69.30
75517;DHT22;64097;52.548;13.406;2022-10-31T08:31:40;18.20;69.30
75517;DHT22;64097;52.548;13.406;2022-10-31T08:34:06;18.20;69.30
75517;DHT22;64097;52.548;13.406;2022-10-31T08:36:32;18.20;69.30
75517;DHT22;64097;52.548;13.406;2022-10-31T08:38:58;18.20;69.40
75517;DHT22;64097;52.548;13.406;2022-10-31T08:41:24;18.20;69.40
75517;DHT22;64097;52.548;13.406;2022-10-31T08:43:49;18.20;69.40
75517;DHT22;64097;52.548;13.406;2022-10-31T08:46:15;18.30;69.50
75517;DHT22;64097;52.548;13.406;2022-10-31T08:48:41;18.20;69.50
75517;DHT22;64097;52.548;13.406;2022-10-31T08:51:09;18.20;69.50
75517;DHT22;64097;52.548;13.406;2022-10-31T08:53:35;18.30;69.50
75517;DHT22;64097;52.548;13.406;2022-10-31T08:56:01;18.30;69.50
75517;DHT22;64097;52.548;13.406;2022-10-31T08:58:26;18.30;69.50
75517;DHT22;64097;52.548;13.406;2022-10-31T09:00:53;18.30;69.50
75517;DHT22;64097;52.548;13.406;2022-10-31T09:03:28;18.30;69.50
75517;DHT22;64097;52.548;13.406;2022-10-31T09:06:00;18.30;69.50
75517;DHT22;64097;52.548;13.406;2022-10-31T09:08:26;18.30;69.50
75517;DHT22;64097;52.548;13.406;2022-10-31T09:10:56;18.30;69.50
75517;DHT22;64097;52.548;13.406;2022-10-31T09:13:24;18.40;69.50
75517;DHT22;64097;52.548;13.406;2022-10-31T09:15:50;18.40;69.50
75517;DHT22;64097;52.548;13.406;2022-10-31T09:18:21;18.40;69.50
75517;DHT22;64097;52.548;13.406;2022-10-31T09:20:48;18.40;69.50
75517;DHT22;64097;52.548;13.406;2022-10-31T09:23:22;18.40;69.50
75517;DHT22;64097;52.548;13.406;2022-10-31T09:25:49;18.40;69.50
75517;DHT22;64097;52.548;13.406;2022-10-31T09:28:17;18.40;69.50
75517;DHT22;64097;52.548;13.406;2022-10-31T09:30:46;18.50;69.50
75517;DHT22;64097;52.548;13.406;2022-10-31T09:33:13;18.50;69.50
75517;DHT22;64097;52.548;13.406;2022-10-31T09:35:39;18.50;69.50
75517;DHT22;64097;52.548;13.406;2022-10-31T09:38:10;18.50;69.40
75517;DHT22;64097;52.548;13.406;2022-10-31T09:43:46;18.50;69.40
75517;DHT22;64097;52.548;13.406;2022-10-31T09:46:21;18.60;69.50
75517;DHT22;64097;52.548;13.406;2022-10-31T09:52:21;18.60;69.30
75517;DHT22;64097;52.548;13.406;2022-10-31T09:54:54;18.60;70.10
75517;DHT22;64097;52.548;13.406;2022-10-31T09:57:28;18.60;69.20
75517;DHT22;64097;52.548;13.406;2022-10-31T09:59:55;18.60;69.30
75517;DHT22;64097;52.548;13.406;2022-10-31T10:05:17;18.70;69.40
75517;DHT22;64097;52.548;13.406;2022-10-31T10:13:36;18.70;69.40
75517;DHT22;64097;52.548;13.406;2022-10-31T10:22:07;18.80;69.40
75517;DHT22;64097;52.548;13.406;2022-10-31T10:24:54;18.80;69.40
75517;DHT22;64097;52.548;13.406;2022-10-31T10:30:14;18.90;69.30
75517;DHT22;64097;52.548;13.406;2022-10-31T10:32:51;18.90;69.20
75517;DHT22;64097;52.548;13.406;2022-10-31T10:35:35;18.90;69.20
75517;DHT22;64097;52.548;13.406;2022-10-31T10:38:15;19.00;69.20
75517;DHT22;64097;52.548;13.406;2022-10-31T10:40:43;19.00;69.20
75517;DHT22;64097;52.548;13.406;2022-10-31T10:43:18;19.00;69.00
75517;DHT22;64097;52.548;13.406;2022-10-31T10:46:00;19.10;69.10
75517;DHT22;64097;52.548;13.406;2022-10-31T10:51:46;19.20;69.00
75517;DHT22;64097;52.548;13.406;2022-10-31T10:54:39;19.20;68.90
75517;DHT22;64097;52.548;13.406;2022-10-31T10:57:27;19.20;68.90
75517;DHT22;64097;52.548;13.406;2022-10-31T10:59:55;19.30;68.90
75517;DHT22;64097;52.548;13.406;2022-10-31T11:02:24;19.30;68.70
75517;DHT22;64097;52.548;13.406;2022-10-31T11:05:30;19.30;68.70
75517;DHT22;64097;52.548;13.406;2022-10-31T11:07:58;19.40;68.80
75517;DHT22;64097;52.548;13.406;2022-10-31T11:10:24;19.40;68.70
75517;DHT22;64097;52.548;13.406;2022-10-31T11:16:07;19.40;68.60
75517;DHT22;64097;52.548;13.406;2022-10-31T11:18:37;19.50;68.60
75517;DHT22;64097;52.548;13.406;2022-10-31T11:21:05;19.40;68.50
75517;DHT22;64097;52.548;13.406;2022-10-31T11:23:32;19.50;68.50
75517;DHT22;64097;52.548;13.406;2022-10-31T11:26:03;19.50;68.50
75517;DHT22;64097;52.548;13.406;2022-10-31T11:28:31;19.50;68.50
75517;DHT22;64097;52.548;13.406;2022-10-31T11:31:22;19.60;68.40
75517;DHT22;64097;52.548;13.406;2022-10-31T11:33:49;19.60;68.40
75517;DHT22;64097;52.548;13.406;2022-10-31T11:36:21;19.60;68.30
75517;DHT22;64097;52.548;13.406;2022-10-31T11:38:48;19.70;68.30
75517;DHT22;64097;52.548;13.406;2022-10-31T11:41:17;19.70;68.30
75517;DHT22;64097;52.548;13.406;2022-10-31T11:44:16;19.70;68.30
75517;DHT22;64097;52.548;13.406;2022-10-31T11:46:44;19.80;68.30
75517;DHT22;64097;52.548;13.406;2022-10-31T11:51:51;19.80;68.20
75517;DHT22;64097;52.548;13.406;2022-10-31T11:54:44;19.80;68.30
75517;DHT22;64097;52.548;13.406;2022-10-31T11:57:31;19.80;68.20
75517;DHT22;64097;52.548;13.406;2022-10-31T12:00:00;19.90;68.20
75517;DHT22;64097;52.548;13.406;2022-10-31T12:02:26;19.90;68.10
75517;DHT22;64097;52.548;13.406;2022-10-31T12:07:42;20.00;68.20
75517;DHT22;64097;52.548;13.406;2022-10-31T12:10:11;20.00;68.10
75517;DHT22;64097;52.548;13.406;2022-10-31T12:15:36;20.00;68.20
75517;DHT22;64097;52.548;13.406;2022-10-31T12:18:12;20.00;68.00
75517;DHT22;64097;52.548;13.406;2022-10-31T12:20:54;20.00;68.00
75517;DHT22;64097;52.548;13.406;2022-10-31T12:26:11;20.00;68.00
75517;DHT22;64097;52.548;13.406;2022-10-31T12:42:39;20.10;67.80
75517;DHT22;64097;52.548;13.406;2022-10-31T12:51:38;20.20;67.90
75517;DHT22;64097;52.548;13.406;2022-10-31T12:59:38;20.20;67.80
75517;DHT22;64097;52.548;13.406;2022-10-31T13:05:12;20.30;67.80
75517;DHT22;64097;52.548;13.406;2022-10-31T13:10:27;20.30;67.70
75517;DHT22;64097;52.548;13.406;2022-10-31T13:13:01;20.30;67.60
75517;DHT22;64097;52.548;13.406;2022-10-31T13:15:34;20.40;67.60
75517;DHT22;64097;52.548;13.406;2022-10-31T13:18:11;20.30;67.60
75517;DHT22;64097;52.548;13.406;2022-10-31T13:20:44;20.40;67.50
75517;DHT22;64097;52.548;13.406;2022-10-31T13:23:29;20.40;67.50
75517;DHT22;64097;52.548;13.406;2022-10-31T13:25:56;20.40;67.40
75517;DHT22;64097;52.548;13.406;2022-10-31T13:31:01;20.50;67.50
75517;DHT22;64097;52.548;13.406;2022-10-31T13:33:37;20.50;67.30
75517;DHT22;64097;52.548;13.406;2022-10-31T13:36:21;20.50;67.40
75517;DHT22;64097;52.548;13.406;2022-10-31T13:42:03;20.50;67.40
75517;DHT22;64097;52.548;13.406;2022-10-31T13:44:35;20.50;67.30
75517;DHT22;64097;52.548;13.406;2022-10-31T13:47:02;20.50;67.30
75517;DHT22;64097;52.548;13.406;2022-10-31T13:52:22;20.60;67.40
75517;DHT22;64097;52.548;13.406;2022-10-31T13:54:50;20.60;67.30
